createdAt,value
2023-03-17T00:00:35.441Z,18.94
2023-03-17T00:01:35.166Z,18.94
2023-03-17T00:02:35.241Z,18.97
2023-03-17T00:03:35.242Z,19.05
2023-03-17T00:04:35.251Z,19.01
2023-03-17T00:05:35.289Z,19.01
2023-03-17T00:06:35.308Z,18.99
2023-03-17T00:07:35.645Z,18.94
2023-03-17T00:08:35.371Z,18.96
2023-03-17T00:09:35.393Z,19.02
2023-03-17T00:10:35.428Z,18.97
2023-03-17T00:11:35.466Z,19.02
2023-03-17T00:12:35.481Z,18.96
2023-03-17T00:13:35.528Z,18.99
2023-03-17T00:14:35.795Z,18.93
2023-03-17T00:15:35.645Z,18.94
2023-03-17T00:16:35.598Z,19.05
2023-03-17T00:17:35.637Z,18.97
2023-03-17T00:18:35.651Z,18.99
2023-03-17T00:19:35.680Z,18.99
2023-03-17T00:20:35.704Z,19.05
2023-03-17T00:21:36.050Z,18.97
2023-03-17T00:22:35.777Z,18.94
2023-03-17T00:23:35.796Z,18.99
2023-03-17T00:24:35.838Z,18.94
2023-03-17T00:25:35.874Z,19.02
2023-03-17T00:26:35.889Z,19.02
2023-03-17T00:28:36.237Z,19.01
2023-03-17T00:29:35.967Z,18.94
2023-03-17T00:30:36.005Z,18.93
2023-03-17T00:31:36.201Z,18.99
2023-03-17T00:33:36.093Z,18.99
2023-03-17T00:34:36.118Z,18.96
2023-03-17T00:35:36.484Z,18.93
2023-03-17T00:36:36.173Z,18.94
2023-03-17T00:37:36.205Z,18.96
2023-03-17T00:38:36.229Z,18.97
2023-03-17T00:39:36.251Z,18.99
2023-03-17T00:40:36.282Z,19.02
2023-03-17T00:41:36.314Z,18.99
2023-03-17T00:42:36.639Z,18.89
2023-03-17T00:43:36.368Z,18.86
2023-03-17T00:44:36.404Z,18.91
2023-03-17T00:45:36.435Z,18.96
2023-03-17T00:46:36.489Z,18.87
2023-03-17T00:48:36.839Z,19.01
2023-03-17T00:49:36.546Z,19.01
2023-03-17T00:51:36.598Z,18.96
2023-03-17T00:53:36.657Z,18.87
2023-03-17T00:54:36.705Z,18.99
2023-03-17T00:55:37.015Z,18.93
2023-03-17T00:56:36.744Z,18.86
2023-03-17T00:57:36.776Z,18.99
2023-03-17T00:58:36.799Z,18.93
2023-03-17T00:59:36.845Z,18.87
2023-03-17T01:00:36.877Z,18.90
2023-03-17T01:01:37.234Z,18.93
2023-03-17T01:03:36.931Z,18.86
2023-03-17T01:04:36.991Z,18.94
2023-03-17T01:05:37.007Z,18.86
2023-03-17T01:07:37.362Z,18.83
2023-03-17T01:08:37.101Z,18.87
2023-03-17T01:09:37.110Z,18.93
2023-03-17T01:10:37.133Z,18.93
2023-03-17T01:11:37.164Z,18.90
2023-03-17T01:12:37.199Z,18.84
2023-03-17T01:13:37.526Z,18.89
2023-03-17T01:14:38.102Z,18.91
2023-03-17T01:15:37.286Z,18.84
2023-03-17T01:16:37.456Z,18.93
2023-03-17T01:17:37.334Z,18.93
2023-03-17T01:18:37.397Z,18.90
2023-03-17T01:19:37.394Z,18.89
2023-03-17T01:20:37.752Z,18.86
2023-03-17T01:22:37.476Z,18.84
2023-03-17T01:23:37.505Z,18.86
2023-03-17T01:24:37.533Z,18.86
2023-03-17T01:25:37.568Z,18.90
2023-03-17T01:26:37.647Z,18.87
2023-03-17T01:27:37.873Z,18.83
2023-03-17T01:28:37.652Z,18.87
2023-03-17T01:30:37.712Z,18.86
2023-03-17T01:31:37.831Z,18.82
2023-03-17T01:32:37.785Z,18.86
2023-03-17T01:33:37.793Z,18.82
2023-03-17T01:34:38.139Z,18.86
2023-03-17T01:35:37.916Z,18.86
2023-03-17T01:36:37.945Z,18.89
2023-03-17T01:37:37.911Z,18.76
2023-03-17T01:39:37.995Z,18.78
2023-03-17T01:40:37.994Z,18.78
2023-03-17T01:41:38.272Z,18.75
2023-03-17T01:42:38.053Z,18.76
2023-03-17T01:43:38.087Z,18.79
2023-03-17T01:45:38.144Z,18.83
2023-03-17T01:46:38.271Z,18.86
2023-03-17T01:47:38.198Z,18.78
2023-03-17T01:48:38.525Z,18.82
2023-03-17T01:49:38.254Z,18.76
2023-03-17T01:50:38.285Z,18.84
2023-03-17T01:51:38.310Z,18.82
2023-03-17T01:52:38.364Z,18.82
2023-03-17T01:53:38.367Z,18.83
2023-03-17T01:54:38.394Z,18.74
2023-03-17T01:55:38.724Z,18.79
2023-03-17T01:56:38.489Z,18.72
2023-03-17T01:57:38.501Z,18.74
2023-03-17T01:58:38.514Z,18.76
2023-03-17T01:59:38.539Z,18.76
2023-03-17T02:00:38.565Z,18.75
2023-03-17T02:01:38.638Z,18.74
2023-03-17T02:02:38.940Z,18.72
2023-03-17T02:03:38.648Z,18.71
2023-03-17T02:04:38.764Z,18.72
2023-03-17T02:05:38.734Z,18.78
2023-03-17T02:06:54.964Z,18.72
2023-03-17T02:07:38.857Z,18.65
2023-03-17T02:08:38.811Z,18.72
2023-03-17T02:09:39.073Z,18.71
2023-03-17T02:10:38.853Z,18.66
2023-03-17T02:11:38.887Z,18.71
2023-03-17T02:12:38.907Z,18.69
2023-03-17T02:13:38.967Z,18.71
2023-03-17T02:14:38.959Z,18.69
2023-03-17T02:15:39.034Z,18.72
2023-03-17T02:16:39.324Z,18.69
2023-03-17T02:17:39.054Z,18.69
2023-03-17T02:18:39.083Z,18.60
2023-03-17T02:19:39.107Z,18.64
2023-03-17T02:20:39.138Z,18.62
2023-03-17T02:21:39.164Z,18.62
2023-03-17T02:22:39.219Z,18.64
2023-03-17T02:23:39.520Z,18.65
2023-03-17T02:24:39.272Z,18.68
2023-03-17T02:25:39.289Z,18.66
2023-03-17T02:26:39.306Z,18.60
2023-03-17T02:27:39.334Z,18.71
2023-03-17T02:28:39.365Z,18.72
2023-03-17T02:29:39.396Z,18.64
2023-03-17T02:30:39.791Z,18.69
2023-03-17T02:31:39.455Z,18.60
2023-03-17T02:32:39.555Z,18.57
2023-03-17T02:33:39.506Z,18.72
2023-03-17T02:34:39.538Z,18.68
2023-03-17T02:35:39.631Z,18.66
2023-03-17T02:36:39.695Z,18.65
2023-03-17T02:37:39.925Z,18.69
2023-03-17T02:38:39.662Z,18.66
2023-03-17T02:39:39.677Z,18.66
2023-03-17T02:40:39.725Z,18.65
2023-03-17T02:41:39.734Z,18.68
2023-03-17T02:42:39.767Z,18.57
2023-03-17T02:43:39.791Z,18.53
2023-03-17T02:44:40.074Z,18.60
2023-03-17T02:45:39.859Z,18.62
2023-03-17T02:46:39.877Z,18.64
2023-03-17T02:47:39.911Z,18.65
2023-03-17T02:48:39.941Z,18.56
2023-03-17T02:49:39.964Z,18.57
2023-03-17T02:50:40.293Z,18.62
2023-03-17T02:51:40.032Z,18.51
2023-03-17T02:52:40.060Z,18.62
2023-03-17T02:53:40.091Z,18.57
2023-03-17T02:54:40.106Z,18.53
2023-03-17T02:55:40.133Z,18.50
2023-03-17T02:56:40.488Z,18.44
2023-03-17T02:57:40.200Z,18.50
2023-03-17T02:58:40.240Z,18.51
2023-03-17T02:59:40.248Z,18.47
2023-03-17T03:00:40.274Z,18.50
2023-03-17T03:01:40.347Z,18.49
2023-03-17T03:02:40.635Z,18.53
2023-03-17T03:03:40.363Z,18.50
2023-03-17T03:04:40.396Z,18.46
2023-03-17T03:05:40.417Z,18.46
2023-03-17T03:06:40.458Z,18.53
2023-03-17T03:07:40.489Z,18.54
2023-03-17T03:08:40.512Z,18.42
2023-03-17T03:09:40.834Z,18.50
2023-03-17T03:10:40.602Z,18.46
2023-03-17T03:11:40.603Z,18.47
2023-03-17T03:12:40.643Z,18.46
2023-03-17T03:13:40.655Z,18.44
2023-03-17T03:14:40.682Z,18.53
2023-03-17T03:15:40.804Z,18.47
2023-03-17T03:16:41.037Z,18.44
2023-03-17T03:17:40.760Z,18.47
2023-03-17T03:18:40.808Z,18.41
2023-03-17T03:19:40.821Z,18.41
2023-03-17T03:20:40.847Z,18.49
2023-03-17T03:21:40.885Z,18.42
2023-03-17T03:23:40.932Z,18.44
2023-03-17T03:24:41.265Z,18.51
2023-03-17T03:25:40.988Z,18.49
2023-03-17T03:26:41.025Z,18.46
2023-03-17T03:27:41.064Z,18.49
2023-03-17T03:28:41.118Z,18.51
2023-03-17T03:29:41.103Z,18.50
2023-03-17T03:30:41.133Z,18.41
2023-03-17T03:31:41.461Z,18.47
2023-03-17T03:32:41.226Z,18.41
2023-03-17T03:33:41.214Z,18.39
2023-03-17T03:34:41.244Z,18.42
2023-03-17T03:35:41.336Z,18.41
2023-03-17T03:36:41.312Z,18.38
2023-03-17T03:37:41.334Z,18.41
2023-03-17T03:38:42.671Z,18.42
2023-03-17T03:39:41.382Z,18.47
2023-03-17T03:40:41.425Z,18.41
2023-03-17T03:41:41.462Z,18.41
2023-03-17T03:42:41.473Z,18.39
2023-03-17T03:43:41.492Z,18.44
2023-03-17T03:44:41.552Z,18.41
2023-03-17T03:45:41.862Z,18.46
2023-03-17T03:46:41.652Z,18.49
2023-03-17T03:47:41.614Z,18.28
2023-03-17T03:48:41.640Z,18.36
2023-03-17T03:49:41.671Z,18.42
2023-03-17T03:51:41.733Z,18.28
2023-03-17T03:52:42.053Z,18.44
2023-03-17T03:53:41.781Z,18.41
2023-03-17T03:54:41.808Z,18.31
2023-03-17T03:55:41.842Z,18.35
2023-03-17T03:56:41.864Z,18.32
2023-03-17T03:57:41.907Z,18.31
2023-03-17T03:58:41.929Z,18.38
2023-03-17T03:59:42.256Z,18.35
2023-03-17T04:00:41.993Z,18.34
2023-03-17T04:01:42.002Z,18.31
2023-03-17T04:02:42.072Z,18.28
2023-03-17T04:03:42.160Z,18.32
2023-03-17T04:04:42.178Z,18.34
2023-03-17T04:05:42.139Z,18.29
2023-03-17T04:06:42.443Z,18.28
2023-03-17T04:07:42.171Z,18.31
2023-03-17T04:08:42.221Z,18.31
2023-03-17T04:09:42.233Z,18.34
2023-03-17T04:10:42.266Z,18.28
2023-03-17T04:11:42.290Z,18.31
2023-03-17T04:12:42.313Z,18.29
2023-03-17T04:13:42.643Z,18.31
2023-03-17T04:14:42.370Z,18.29
2023-03-17T04:15:42.406Z,18.28
2023-03-17T04:16:43.581Z,18.34
2023-03-17T04:17:42.484Z,18.29
2023-03-17T04:18:42.495Z,18.28
2023-03-17T04:19:42.510Z,18.28
2023-03-17T04:20:42.787Z,18.28
2023-03-17T04:21:42.571Z,18.26
2023-03-17T04:22:42.608Z,18.26
2023-03-17T04:23:42.624Z,18.28
2023-03-17T04:24:42.648Z,18.26
2023-03-17T04:25:42.686Z,18.25
2023-03-17T04:26:42.708Z,18.32
2023-03-17T04:27:43.038Z,18.28
2023-03-17T04:28:42.764Z,18.26
2023-03-17T04:29:42.793Z,18.25
2023-03-17T04:30:42.824Z,18.23
2023-03-17T04:32:42.926Z,18.19
2023-03-17T04:33:42.910Z,18.23
2023-03-17T04:34:43.241Z,18.19
2023-03-17T04:35:43.003Z,18.16
2023-03-17T04:36:42.990Z,18.21
2023-03-17T04:37:43.016Z,18.16
2023-03-17T04:38:43.124Z,18.19
2023-03-17T04:39:43.073Z,18.20
2023-03-17T04:40:43.109Z,18.23
2023-03-17T04:41:43.431Z,18.26
2023-03-17T04:42:43.162Z,18.23
2023-03-17T04:43:43.191Z,18.17
2023-03-17T04:44:43.225Z,18.25
2023-03-17T04:45:43.283Z,18.20
2023-03-17T04:46:43.270Z,18.19
2023-03-17T04:47:43.300Z,18.21
2023-03-17T04:48:43.671Z,18.16
2023-03-17T04:49:43.362Z,18.16
2023-03-17T04:50:43.382Z,18.14
2023-03-17T04:51:43.412Z,18.20
2023-03-17T04:53:43.477Z,18.17
2023-03-17T04:54:43.521Z,18.20
2023-03-17T04:55:43.836Z,18.19
2023-03-17T04:56:43.552Z,18.17
2023-03-17T04:57:43.591Z,18.19
2023-03-17T04:58:43.618Z,18.17
2023-03-17T04:59:43.649Z,18.16
2023-03-17T05:00:43.684Z,18.16
2023-03-17T05:01:43.701Z,18.09
2023-03-17T05:02:43.978Z,18.14
2023-03-17T05:03:43.752Z,18.21
2023-03-17T05:04:43.795Z,18.21
2023-03-17T05:05:43.811Z,18.13
2023-03-17T05:07:43.872Z,18.17
2023-03-17T05:08:43.893Z,18.13
2023-03-17T05:09:44.220Z,18.14
2023-03-17T05:10:43.955Z,18.14
2023-03-17T05:11:44.006Z,18.17
2023-03-17T05:12:44.004Z,18.16
2023-03-17T05:13:44.039Z,18.11
2023-03-17T05:14:44.067Z,18.09
2023-03-17T05:15:44.393Z,18.11
2023-03-17T05:16:44.161Z,18.14
2023-03-17T05:17:44.157Z,18.14
2023-03-17T05:18:44.178Z,18.11
2023-03-17T05:19:44.203Z,18.14
2023-03-17T05:20:44.251Z,18.16
2023-03-17T05:21:44.559Z,18.09
2023-03-17T05:22:44.288Z,18.11
2023-03-17T05:23:44.313Z,18.17
2023-03-17T05:24:44.347Z,18.04
2023-03-17T05:25:44.375Z,18.14
2023-03-17T05:26:44.399Z,18.11
2023-03-17T05:27:44.683Z,18.07
2023-03-17T05:28:44.452Z,18.05
2023-03-17T05:29:44.492Z,18.10
2023-03-17T05:30:44.546Z,18.11
2023-03-17T05:31:44.547Z,18.13
2023-03-17T05:32:44.631Z,18.07
2023-03-17T05:34:44.925Z,18.07
2023-03-17T05:35:44.667Z,18.13
2023-03-17T05:36:44.793Z,18.14
2023-03-17T05:37:44.711Z,18.13
2023-03-17T05:38:44.741Z,18.05
2023-03-17T05:39:44.766Z,18.10
2023-03-17T05:40:44.835Z,18.14
2023-03-17T05:41:45.066Z,18.09
2023-03-17T05:42:44.852Z,18.13
2023-03-17T05:43:44.888Z,18.13
2023-03-17T05:44:44.906Z,18.13
2023-03-17T05:45:45.316Z,18.09
2023-03-17T05:46:44.964Z,18.14
2023-03-17T05:47:45.206Z,18.10
2023-03-17T05:48:45.351Z,18.11
2023-03-17T05:49:45.049Z,18.07
2023-03-17T05:50:45.071Z,18.11
2023-03-17T05:51:45.101Z,18.13
2023-03-17T05:52:45.404Z,18.10
2023-03-17T05:53:45.155Z,18.07
2023-03-17T05:54:45.197Z,18.13
2023-03-17T05:55:45.467Z,18.09
2023-03-17T05:56:45.250Z,18.09
2023-03-17T05:57:45.275Z,18.10
2023-03-17T05:58:45.303Z,18.13
2023-03-17T05:59:45.330Z,18.13
2023-03-17T06:00:45.360Z,18.07
2023-03-17T06:01:45.406Z,18.09
2023-03-17T06:02:45.830Z,18.05
2023-03-17T06:03:45.488Z,18.16
2023-03-17T06:04:45.472Z,18.11
2023-03-17T06:05:45.507Z,18.13
2023-03-17T06:06:45.532Z,18.07
2023-03-17T06:07:53.353Z,18.13
2023-03-17T06:08:45.613Z,18.13
2023-03-17T06:09:45.912Z,18.13
2023-03-17T06:10:45.636Z,18.13
2023-03-17T06:11:45.674Z,18.11
2023-03-17T06:12:45.717Z,18.09
2023-03-17T06:13:45.734Z,18.05
2023-03-17T06:14:45.757Z,18.13
2023-03-17T06:15:45.797Z,18.11
2023-03-17T06:16:46.060Z,18.11
2023-03-17T06:17:45.851Z,18.17
2023-03-17T06:18:45.900Z,18.16
2023-03-17T06:19:48.300Z,18.16
2023-03-17T06:20:45.923Z,18.10
2023-03-17T06:21:45.947Z,18.10
2023-03-17T06:23:02.257Z,18.20
2023-03-17T06:23:46.010Z,18.13
2023-03-17T06:24:46.073Z,18.11
2023-03-17T06:25:46.059Z,18.17
2023-03-17T06:26:46.104Z,18.20
2023-03-17T06:27:46.128Z,18.16
2023-03-17T06:28:46.152Z,18.17
2023-03-17T06:29:46.472Z,18.23
2023-03-17T06:30:46.266Z,18.14
2023-03-17T06:31:46.235Z,18.11
2023-03-17T06:32:46.298Z,18.21
2023-03-17T06:33:46.291Z,18.17
2023-03-17T06:34:46.313Z,18.21
2023-03-17T06:35:46.358Z,18.19
2023-03-17T06:36:46.679Z,18.20
2023-03-17T06:37:46.394Z,18.23
2023-03-17T06:38:46.425Z,18.28
2023-03-17T06:39:46.492Z,18.25
2023-03-17T06:40:46.506Z,18.26
2023-03-17T06:41:46.517Z,18.26
2023-03-17T06:42:46.837Z,18.25
2023-03-17T06:43:46.576Z,18.28
2023-03-17T06:44:46.594Z,18.28
2023-03-17T06:45:46.647Z,18.25
2023-03-17T06:46:46.704Z,18.28
2023-03-17T06:47:46.689Z,18.29
2023-03-17T06:48:47.014Z,18.21
2023-03-17T06:49:46.735Z,18.31
2023-03-17T06:50:46.772Z,18.28
2023-03-17T06:51:46.789Z,18.32
2023-03-17T06:52:47.017Z,18.34
2023-03-17T06:53:46.843Z,18.31
2023-03-17T06:54:47.190Z,18.29
2023-03-17T06:55:46.910Z,18.31
2023-03-17T06:56:46.952Z,18.29
2023-03-17T06:57:48.386Z,18.35
2023-03-17T06:58:46.998Z,18.32
2023-03-17T06:59:47.033Z,18.29
2023-03-17T07:00:47.046Z,18.42
2023-03-17T07:01:47.362Z,18.28
2023-03-17T07:02:47.112Z,18.29
2023-03-17T07:03:47.165Z,18.47
2023-03-17T07:04:47.216Z,18.46
2023-03-17T07:05:47.185Z,18.41
2023-03-17T07:06:47.222Z,18.42
2023-03-17T07:07:47.241Z,18.49
2023-03-17T07:08:47.597Z,18.44
2023-03-17T07:09:47.299Z,18.39
2023-03-17T07:10:47.331Z,18.49
2023-03-17T07:11:47.369Z,18.49
2023-03-17T07:12:47.431Z,18.49
2023-03-17T07:13:47.534Z,18.46
2023-03-17T07:14:47.442Z,18.50
2023-03-17T07:15:47.535Z,18.46
2023-03-17T07:16:47.560Z,18.49
2023-03-17T07:17:47.809Z,18.46
2023-03-17T07:18:47.572Z,18.50
2023-03-17T07:19:47.595Z,18.44
2023-03-17T07:20:47.614Z,18.54
2023-03-17T07:21:47.942Z,18.42
2023-03-17T07:22:47.677Z,18.51
2023-03-17T07:23:47.691Z,18.53
2023-03-17T07:24:47.717Z,18.57
2023-03-17T07:25:47.797Z,18.59
2023-03-17T07:26:47.805Z,18.60
2023-03-17T07:27:47.803Z,18.59
2023-03-17T07:28:48.152Z,18.56
2023-03-17T07:29:47.872Z,18.60
2023-03-17T07:30:47.903Z,18.60
2023-03-17T07:31:48.031Z,18.64
2023-03-17T07:32:48.093Z,18.53
2023-03-17T07:33:48.008Z,18.69
2023-03-17T07:34:48.021Z,18.59
2023-03-17T07:35:48.428Z,18.66
2023-03-17T07:36:48.068Z,18.60
2023-03-17T07:37:48.090Z,18.68
2023-03-17T07:38:48.127Z,18.66
2023-03-17T07:39:48.356Z,18.68
2023-03-17T07:40:48.182Z,18.68
2023-03-17T07:41:48.205Z,18.66
2023-03-17T07:42:48.536Z,18.71
2023-03-17T07:43:48.300Z,18.69
2023-03-17T07:44:48.345Z,18.74
2023-03-17T07:45:48.402Z,18.75
2023-03-17T07:46:48.375Z,18.82
2023-03-17T07:47:48.400Z,18.68
2023-03-17T07:48:48.406Z,18.75
2023-03-17T07:49:48.735Z,18.75
2023-03-17T07:50:48.468Z,18.83
2023-03-17T07:51:48.589Z,18.78
2023-03-17T07:52:48.522Z,18.82
2023-03-17T07:53:48.551Z,18.86
2023-03-17T07:54:48.577Z,18.78
2023-03-17T07:55:48.631Z,18.84
2023-03-17T07:56:48.901Z,18.82
2023-03-17T07:57:48.739Z,18.78
2023-03-17T07:58:48.700Z,18.84
2023-03-17T07:59:48.754Z,18.83
2023-03-17T08:00:48.785Z,18.86
2023-03-17T08:01:48.860Z,18.76
2023-03-17T08:03:03.146Z,18.90
2023-03-17T08:04:48.860Z,18.90
2023-03-17T08:05:48.889Z,18.86
2023-03-17T08:06:48.946Z,18.89
2023-03-17T08:07:49.072Z,18.84
2023-03-17T08:08:49.033Z,18.84
2023-03-17T08:09:49.255Z,18.91
2023-03-17T08:10:49.028Z,18.84
2023-03-17T08:11:49.059Z,18.91
2023-03-17T08:12:49.095Z,18.84
2023-03-17T08:13:49.124Z,18.93
2023-03-17T08:14:49.144Z,18.94
2023-03-17T08:15:49.478Z,19.01
2023-03-17T08:16:49.377Z,18.93
2023-03-17T08:17:49.239Z,18.90
2023-03-17T08:18:49.260Z,18.89
2023-03-17T08:19:50.073Z,18.90
2023-03-17T08:20:49.320Z,19.01
2023-03-17T08:21:49.649Z,18.83
2023-03-17T08:22:49.441Z,18.87
2023-03-17T08:23:49.442Z,18.87
2023-03-17T08:24:49.472Z,18.90
2023-03-17T08:25:49.461Z,18.97
2023-03-17T08:26:49.520Z,18.87
2023-03-17T08:27:49.986Z,18.91
2023-03-17T08:28:49.555Z,18.91
2023-03-17T08:29:49.679Z,18.97
2023-03-17T08:30:50.696Z,18.99
2023-03-17T08:31:49.666Z,18.90
2023-03-17T08:32:49.764Z,18.87
2023-03-17T08:33:49.695Z,18.86
2023-03-17T08:34:50.018Z,18.91
2023-03-17T08:35:49.797Z,18.89
2023-03-17T08:36:49.777Z,18.91
2023-03-17T08:37:49.809Z,18.91
2023-03-17T08:38:49.837Z,19.05
2023-03-17T08:39:49.863Z,18.99
2023-03-17T08:40:49.887Z,19.02
2023-03-17T08:41:50.226Z,18.97
2023-03-17T08:43:49.979Z,19.01
2023-03-17T08:44:50.009Z,18.97
2023-03-17T08:45:50.067Z,19.09
2023-03-17T08:46:50.067Z,18.99
2023-03-17T08:48:50.144Z,19.05
2023-03-17T08:49:50.376Z,19.10
2023-03-17T08:50:51.135Z,19.07
2023-03-17T08:51:51.329Z,19.10
2023-03-17T08:52:51.146Z,19.12
2023-03-17T08:53:51.475Z,19.07
2023-03-17T08:55:50.329Z,19.05
2023-03-17T08:56:50.359Z,19.06
2023-03-17T08:58:50.413Z,19.13
2023-03-17T08:59:50.442Z,19.09
2023-03-17T09:00:50.468Z,19.15
2023-03-17T09:01:50.884Z,19.07
2023-03-17T09:02:50.621Z,19.15
2023-03-17T09:03:50.659Z,19.15
2023-03-17T09:04:50.610Z,19.16
2023-03-17T09:05:50.627Z,19.21
2023-03-17T09:07:02.841Z,19.16
2023-03-17T09:07:50.974Z,19.21
2023-03-17T09:08:50.726Z,19.24
2023-03-17T09:09:50.737Z,19.16
2023-03-17T09:10:50.763Z,19.20
2023-03-17T09:11:50.805Z,19.21
2023-03-17T09:12:50.835Z,19.20
2023-03-17T09:13:50.849Z,19.25
2023-03-17T09:14:50.892Z,19.23
2023-03-17T09:15:52.018Z,19.21
2023-03-17T09:16:50.946Z,19.31
2023-03-17T09:17:51.008Z,19.25
2023-03-17T09:18:51.001Z,19.27
2023-03-17T09:19:51.280Z,19.25
2023-03-17T09:20:51.173Z,19.32
2023-03-17T09:21:51.083Z,19.30
2023-03-17T09:22:51.117Z,19.27
2023-03-17T09:23:51.152Z,19.34
2023-03-17T09:24:51.174Z,19.39
2023-03-17T09:25:51.197Z,19.30
2023-03-17T09:26:51.541Z,19.38
2023-03-17T09:27:51.261Z,19.40
2023-03-17T09:28:51.285Z,19.38
2023-03-17T09:29:51.333Z,19.39
2023-03-17T09:30:51.477Z,19.47
2023-03-17T09:31:51.388Z,19.52
2023-03-17T09:32:51.490Z,19.38
2023-03-17T09:33:51.685Z,19.35
2023-03-17T09:34:51.787Z,19.47
2023-03-17T09:35:51.506Z,19.47
2023-03-17T09:36:51.575Z,19.57
2023-03-17T09:37:51.583Z,19.53
2023-03-17T09:38:51.575Z,19.53
2023-03-17T09:39:51.602Z,19.57
2023-03-17T09:40:51.938Z,19.49
2023-03-17T09:41:51.662Z,19.67
2023-03-17T09:42:51.695Z,19.52
2023-03-17T09:43:51.722Z,19.47
2023-03-17T09:44:51.803Z,19.61
2023-03-17T09:45:51.776Z,19.55
2023-03-17T09:46:51.825Z,19.53
2023-03-17T09:47:52.300Z,19.61
2023-03-17T09:48:51.871Z,19.60
2023-03-17T09:49:51.901Z,19.65
2023-03-17T09:50:51.935Z,19.60
2023-03-17T09:51:51.964Z,19.60
2023-03-17T09:52:52.008Z,19.72
2023-03-17T09:53:52.022Z,19.71
2023-03-17T09:54:52.302Z,19.75
2023-03-17T09:55:52.075Z,19.62
2023-03-17T09:56:52.115Z,19.70
2023-03-17T09:57:52.147Z,19.76
2023-03-17T09:58:52.164Z,19.70
2023-03-17T09:59:52.193Z,19.72
2023-03-17T10:00:52.223Z,19.79
2023-03-17T10:01:52.607Z,19.76
2023-03-17T10:02:52.319Z,19.71
2023-03-17T10:03:52.319Z,19.76
2023-03-17T10:04:52.426Z,19.79
2023-03-17T10:05:52.744Z,19.80
2023-03-17T10:06:52.402Z,19.83
2023-03-17T10:07:52.428Z,19.86
2023-03-17T10:08:52.737Z,19.83
2023-03-17T10:09:52.488Z,19.80
2023-03-17T10:10:52.516Z,19.82
2023-03-17T10:11:52.540Z,19.89
2023-03-17T10:12:52.581Z,19.79
2023-03-17T10:13:52.613Z,19.85
2023-03-17T10:14:52.647Z,19.92
2023-03-17T10:15:52.772Z,19.83
2023-03-17T10:16:52.696Z,19.89
2023-03-17T10:17:52.726Z,19.90
2023-03-17T10:19:52.787Z,19.95
2023-03-17T10:20:52.814Z,19.89
2023-03-17T10:21:53.098Z,19.90
2023-03-17T10:22:52.875Z,19.90
2023-03-17T10:23:53.019Z,19.89
2023-03-17T10:24:52.972Z,19.86
2023-03-17T10:25:52.987Z,19.92
2023-03-17T10:26:52.991Z,19.90
2023-03-17T10:27:53.292Z,19.97
2023-03-17T10:28:53.052Z,19.94
2023-03-17T10:29:53.085Z,19.90
2023-03-17T10:30:53.109Z,19.97
2023-03-17T10:31:53.221Z,19.89
2023-03-17T10:32:53.206Z,19.89
2023-03-17T10:33:53.201Z,19.90
2023-03-17T10:34:53.232Z,19.94
2023-03-17T10:35:53.305Z,19.90
2023-03-17T10:36:53.305Z,19.92
2023-03-17T10:38:04.437Z,19.95
2023-03-17T10:38:53.353Z,19.92
2023-03-17T10:39:53.680Z,19.94
2023-03-17T10:40:53.460Z,19.90
2023-03-17T10:41:53.447Z,19.94
2023-03-17T10:42:53.476Z,19.92
2023-03-17T10:43:53.506Z,19.95
2023-03-17T10:44:53.529Z,19.94
2023-03-17T10:46:53.952Z,19.95
2023-03-17T10:47:53.618Z,19.95
2023-03-17T10:48:53.664Z,19.95
2023-03-17T10:49:53.683Z,19.94
2023-03-17T10:50:54.422Z,19.92
2023-03-17T10:51:53.745Z,19.94
2023-03-17T10:52:53.771Z,19.92
2023-03-17T10:53:54.101Z,19.92
2023-03-17T10:54:53.836Z,19.92
2023-03-17T10:55:53.869Z,19.92
2023-03-17T10:56:53.917Z,19.90
2023-03-17T10:57:53.922Z,19.95
2023-03-17T10:58:53.950Z,19.92
2023-03-17T10:59:54.055Z,19.90
2023-03-17T11:00:54.064Z,19.95
2023-03-17T11:01:54.052Z,19.94
2023-03-17T11:03:54.152Z,19.90
2023-03-17T11:04:54.130Z,19.92
2023-03-17T11:05:54.162Z,19.90
2023-03-17T11:06:54.508Z,19.94
2023-03-17T11:07:54.234Z,19.95
2023-03-17T11:08:54.281Z,19.92
2023-03-17T11:09:54.284Z,19.92
2023-03-17T11:10:54.325Z,19.95
2023-03-17T11:11:54.343Z,19.95
2023-03-17T11:12:54.425Z,19.94
2023-03-17T11:13:54.655Z,19.92
2023-03-17T11:14:54.434Z,19.92
2023-03-17T11:15:54.512Z,19.95
2023-03-17T11:16:54.493Z,19.95
2023-03-17T11:17:54.529Z,19.95
2023-03-17T11:18:54.559Z,19.95
2023-03-17T11:19:54.589Z,19.95
2023-03-17T11:20:54.915Z,19.94
2023-03-17T11:21:54.646Z,19.92
2023-03-17T11:22:54.685Z,19.94
2023-03-17T11:24:54.750Z,19.92
2023-03-17T11:25:54.764Z,19.90
2023-03-17T11:26:54.815Z,19.89
2023-03-17T11:27:54.837Z,19.92
2023-03-17T11:28:54.880Z,19.95
2023-03-17T11:29:54.894Z,19.97
2023-03-17T11:30:55.034Z,19.94
2023-03-17T11:31:54.998Z,19.97
2023-03-17T11:32:55.061Z,19.95
2023-03-17T11:33:55.308Z,19.90
2023-03-17T11:34:55.046Z,19.92
2023-03-17T11:35:55.092Z,20.08
2023-03-17T11:36:56.998Z,20.08
2023-03-17T11:37:55.139Z,20.04
2023-03-17T11:38:55.162Z,20.05
2023-03-17T11:39:55.485Z,20.02
2023-03-17T11:40:55.224Z,20.12
2023-03-17T11:41:55.259Z,20.13
2023-03-17T11:42:55.997Z,20.05
2023-03-17T11:43:55.315Z,20.04
2023-03-17T11:44:55.380Z,20.02
2023-03-17T11:45:55.738Z,20.04
2023-03-17T11:46:55.411Z,20.19
2023-03-17T11:47:55.438Z,20.17
2023-03-17T11:48:55.464Z,20.13
2023-03-17T11:49:55.510Z,20.16
2023-03-17T11:50:55.521Z,20.15
2023-03-17T11:51:55.549Z,20.19
2023-03-17T11:52:55.584Z,20.16
2023-03-17T11:53:55.616Z,20.19
2023-03-17T11:54:57.113Z,20.23
2023-03-17T11:55:55.681Z,20.19
2023-03-17T11:56:55.705Z,20.19
2023-03-17T11:57:55.984Z,20.26
2023-03-17T11:58:55.758Z,20.26
2023-03-17T11:59:56.090Z,20.27
2023-03-17T12:00:55.852Z,20.31
2023-03-17T12:01:55.856Z,20.30
2023-03-17T12:02:55.876Z,20.27
2023-03-17T12:03:56.049Z,20.34
2023-03-17T12:04:56.235Z,20.33
2023-03-17T12:05:55.972Z,20.34
2023-03-17T12:06:56.794Z,20.48
2023-03-17T12:07:56.037Z,20.42
2023-03-17T12:09:56.088Z,20.53
2023-03-17T12:10:56.114Z,20.42
2023-03-17T12:11:56.162Z,20.42
2023-03-17T12:12:56.184Z,20.60
2023-03-17T12:13:56.213Z,20.60
2023-03-17T12:14:56.339Z,20.54
2023-03-17T12:15:56.329Z,20.57
2023-03-17T12:16:56.329Z,20.60
2023-03-17T12:17:56.640Z,20.61
2023-03-17T12:18:56.369Z,20.61
2023-03-17T12:19:56.387Z,20.56
2023-03-17T12:20:56.415Z,20.60
2023-03-17T12:21:56.458Z,20.64
2023-03-17T12:22:57.118Z,20.60
2023-03-17T12:23:56.815Z,20.73
2023-03-17T12:24:56.542Z,20.63
2023-03-17T12:25:56.581Z,20.68
2023-03-17T12:26:56.610Z,20.72
2023-03-17T12:27:56.642Z,20.76
2023-03-17T12:28:57.426Z,20.72
2023-03-17T12:30:57.051Z,20.69
2023-03-17T12:31:56.752Z,20.82
2023-03-17T12:32:56.857Z,20.75
2023-03-17T12:33:56.821Z,20.85
2023-03-17T12:34:57.441Z,20.81
2023-03-17T12:35:56.945Z,20.81
2023-03-17T12:36:57.210Z,20.72
2023-03-17T12:37:56.959Z,20.79
2023-03-17T12:38:56.979Z,20.81
2023-03-17T12:39:57.035Z,20.88
2023-03-17T12:40:57.040Z,20.85
2023-03-17T12:41:57.066Z,20.82
2023-03-17T12:42:57.094Z,20.91
2023-03-17T12:43:57.124Z,20.85
2023-03-17T12:44:57.160Z,20.85
2023-03-17T12:45:57.329Z,20.90
2023-03-17T12:46:57.229Z,20.83
2023-03-17T12:47:57.245Z,20.85
2023-03-17T12:48:57.598Z,20.88
2023-03-17T12:49:57.316Z,20.90
2023-03-17T12:50:57.350Z,20.90
2023-03-17T12:51:57.700Z,20.96
2023-03-17T12:52:57.414Z,20.88
2023-03-17T12:53:57.430Z,20.94
2023-03-17T12:54:57.462Z,20.91
2023-03-17T12:55:57.797Z,20.88
2023-03-17T12:56:57.577Z,20.87
2023-03-17T12:57:57.556Z,20.96
2023-03-17T12:58:57.591Z,21.01
2023-03-17T12:59:57.613Z,20.94
2023-03-17T13:00:57.652Z,20.93
2023-03-17T13:01:57.799Z,20.85
2023-03-17T13:02:58.057Z,20.91
2023-03-17T13:03:57.738Z,20.88
2023-03-17T13:04:57.800Z,20.94
2023-03-17T13:05:57.799Z,20.88
2023-03-17T13:06:57.831Z,20.96
2023-03-17T13:07:57.865Z,20.90
2023-03-17T13:08:57.894Z,20.93
2023-03-17T13:09:58.324Z,20.97
2023-03-17T13:10:57.957Z,20.97
2023-03-17T13:11:57.987Z,21.03
2023-03-17T13:12:58.018Z,21.01
2023-03-17T13:13:58.045Z,20.93
2023-03-17T13:14:58.082Z,20.97
2023-03-17T13:15:58.168Z,20.98
2023-03-17T13:16:58.146Z,21.03
2023-03-17T13:17:58.171Z,20.96
2023-03-17T13:18:58.308Z,21.03
2023-03-17T13:19:58.252Z,21.00
2023-03-17T13:20:58.296Z,20.97